createdAt,value
2022-11-11T00:01:49.622Z,100304.22
2022-11-11T00:03:39.764Z,100305.69
2022-11-11T00:05:29.975Z,100307.19
2022-11-11T00:07:19.946Z,100302.56
2022-11-11T00:09:10.246Z,100303.31
2022-11-11T00:11:04.644Z,100302.56
2022-11-11T00:12:54.580Z,100303.31
2022-11-11T00:14:44.754Z,100308.69
2022-11-11T00:16:34.749Z,100300.63
2022-11-11T00:18:25.196Z,100300.63
2022-11-11T00:20:18.031Z,100297.94
2022-11-11T00:22:21.875Z,100292.56
2022-11-11T00:24:26.178Z,100295.25
2022-11-11T00:26:38.481Z,100291.06
2022-11-11T00:28:26.693Z,100287.63
2022-11-11T00:30:17.194Z,100274.94
2022-11-11T00:32:07.823Z,100284.19
2022-11-11T00:33:58.071Z,100280.31
2022-11-11T00:35:48.509Z,100268.06
2022-11-11T00:37:38.495Z,100278.06
2022-11-11T00:39:28.775Z,100275.38
2022-11-11T00:41:20.213Z,100284.19
2022-11-11T00:43:10.240Z,100278.06
2022-11-11T00:45:00.541Z,100280.75
2022-11-11T00:46:50.594Z,100283.44
2022-11-11T00:48:40.596Z,100278.81
2022-11-11T00:50:30.796Z,100286.13
2022-11-11T00:52:20.932Z,100281.97
2022-11-11T00:54:11.269Z,100283.91
2022-11-11T00:56:01.623Z,100278.81
2022-11-11T00:57:52.044Z,100282.72
2022-11-11T00:59:42.230Z,100284.19
2022-11-11T01:01:35.608Z,100279.56
2022-11-11T01:03:25.722Z,100274.19
2022-11-11T01:05:15.964Z,100261.22
2022-11-11T01:07:06.235Z,100257.31
2022-11-11T01:08:56.510Z,100258.53
2022-11-11T01:10:46.886Z,100260.00
2022-11-11T01:12:37.318Z,100258.84
2022-11-11T01:14:27.104Z,100262.69
2022-11-11T01:16:24.989Z,100272.69
2022-11-11T01:18:17.881Z,100262.69
2022-11-11T01:20:07.974Z,100273.44
2022-11-11T01:21:58.613Z,100270.75
2022-11-11T01:23:48.670Z,100271.50
2022-11-11T01:25:39.503Z,100277.34
2022-11-11T01:27:29.844Z,100280.31
2022-11-11T01:29:20.332Z,100272.69
2022-11-11T01:31:12.991Z,100279.56
2022-11-11T01:33:03.370Z,100278.81
2022-11-11T01:34:53.537Z,100289.56
2022-11-11T01:36:43.938Z,100287.34
2022-11-11T01:38:33.834Z,100288.09
2022-11-11T01:40:23.888Z,100288.09
2022-11-11T01:42:14.096Z,100290.03
2022-11-11T01:44:14.713Z,100284.19
2022-11-11T01:46:05.196Z,100284.66
2022-11-11T01:48:22.266Z,100284.66
2022-11-11T01:50:05.876Z,100285.41
2022-11-11T01:52:11.006Z,100284.66
2022-11-11T01:54:05.853Z,100280.03
2022-11-11T01:55:56.954Z,100282.84
2022-11-11T01:57:54.898Z,100293.47
2022-11-11T01:59:46.405Z,100290.31
2022-11-11T02:01:36.351Z,100298.38
2022-11-11T02:03:27.073Z,100302.56
2022-11-11T02:05:18.454Z,100292.72
2022-11-11T02:07:09.038Z,100298.84
2022-11-11T02:08:59.332Z,100295.06
2022-11-11T02:10:49.399Z,100297.63
2022-11-11T02:12:39.630Z,100304.94
2022-11-11T02:14:31.507Z,100306.44
2022-11-11T02:16:23.905Z,100307.19
2022-11-11T02:18:14.107Z,100306.44
2022-11-11T02:20:04.755Z,100304.50
2022-11-11T02:21:57.879Z,100308.38
2022-11-11T02:24:07.789Z,100302.25
2022-11-11T02:25:57.941Z,100303.88
2022-11-11T02:27:49.589Z,100303.00
2022-11-11T02:29:39.800Z,100293.88
2022-11-11T02:31:30.142Z,100289.25
2022-11-11T02:33:20.603Z,100301.81
2022-11-11T02:35:18.109Z,100291.06
2022-11-11T02:37:08.791Z,100296.44
2022-11-11T02:39:02.248Z,100299.13
2022-11-11T02:40:52.284Z,100295.69
2022-11-11T02:42:42.168Z,100289.56
2022-11-11T02:44:32.123Z,100289.56
2022-11-11T02:46:22.506Z,100288.81
2022-11-11T02:48:15.736Z,100298.38
2022-11-11T02:50:06.399Z,100279.28
2022-11-11T02:51:56.475Z,100288.09
2022-11-11T02:53:46.851Z,100290.78
2022-11-11T02:55:37.442Z,100290.78
2022-11-11T02:57:28.008Z,100296.16
2022-11-11T02:59:18.624Z,100298.84
2022-11-11T03:01:08.886Z,100293.47
2022-11-11T03:03:02.068Z,100300.31
2022-11-11T03:04:52.573Z,100300.00
2022-11-11T03:06:42.985Z,100308.38
2022-11-11T03:08:33.146Z,100305.69
2022-11-11T03:10:23.484Z,100306.44
2022-11-11T03:12:17.066Z,100317.19
2022-11-11T03:14:07.466Z,100324.81
2022-11-11T03:15:57.697Z,100333.31
2022-11-11T03:17:47.964Z,100333.75
2022-11-11T03:19:38.201Z,100343.31
2022-11-11T03:22:50.555Z,100341.38
2022-11-11T03:23:38.364Z,100345.56
2022-11-11T03:25:31.460Z,100343.63
2022-11-11T03:27:21.490Z,100350.19
2022-11-11T03:29:11.756Z,100352.88
2022-11-11T03:31:04.236Z,100350.19
2022-11-11T03:32:54.598Z,100348.69
2022-11-11T03:34:44.762Z,100357.50
2022-11-11T03:36:34.852Z,100358.66
2022-11-11T03:38:25.135Z,100359.88
2022-11-11T03:40:15.002Z,100362.09
2022-11-11T03:42:04.808Z,100360.63
2022-11-11T03:43:54.582Z,100352.56
2022-11-11T03:45:44.668Z,100370.16
2022-11-11T03:47:34.787Z,100367.94
2022-11-11T03:49:24.574Z,100367.19
2022-11-11T03:51:14.675Z,100371.38
2022-11-11T03:53:06.245Z,100376.00
2022-11-11T03:54:56.467Z,100368.38
2022-11-11T03:56:46.433Z,100369.53
2022-11-11T03:58:36.340Z,100375.66
2022-11-11T04:00:28.203Z,100377.94
2022-11-11T04:02:18.499Z,100366.44
2022-11-11T04:04:08.566Z,100369.88
2022-11-11T04:05:58.775Z,100358.38
2022-11-11T04:07:50.836Z,100363.00
2022-11-11T04:09:40.670Z,100368.38
2022-11-11T04:11:35.319Z,100360.31
2022-11-11T04:13:25.796Z,100352.25
2022-11-11T04:15:16.604Z,100351.81
2022-11-11T04:17:06.763Z,100357.50
2022-11-11T04:18:56.863Z,100360.47
2022-11-11T04:20:46.845Z,100355.56
2022-11-11T04:22:41.699Z,100350.94
2022-11-11T04:24:31.803Z,100351.06
2022-11-11T04:26:21.794Z,100355.56
2022-11-11T04:28:11.997Z,100352.13
2022-11-11T04:30:02.259Z,100361.69
2022-11-11T04:31:52.070Z,100364.78
2022-11-11T04:33:42.526Z,100367.47
2022-11-11T04:35:32.642Z,100360.19
2022-11-11T04:37:23.552Z,100363.63
2022-11-11T04:39:13.651Z,100365.56
2022-11-11T04:41:03.864Z,100367.47
2022-11-11T04:42:54.216Z,100363.31
2022-11-11T04:44:44.496Z,100356.72
2022-11-11T04:46:34.441Z,100361.69
2022-11-11T04:48:24.552Z,100363.91
2022-11-11T04:50:15.024Z,100367.81
2022-11-11T04:52:04.894Z,100371.22
2022-11-11T04:53:55.868Z,100362.44
2022-11-11T04:55:46.157Z,100359.13
2022-11-11T04:57:48.184Z,100362.88
2022-11-11T04:59:38.165Z,100356.31
2022-11-11T05:01:28.383Z,100358.25
2022-11-11T05:03:19.297Z,100351.06
2022-11-11T05:05:09.186Z,100348.25
2022-11-11T05:06:59.873Z,100354.81
2022-11-11T05:08:50.444Z,100354.06
2022-11-11T05:10:40.652Z,100355.97
2022-11-11T05:12:30.548Z,100351.81
2022-11-11T05:14:21.148Z,100357.94
2022-11-11T05:16:22.915Z,100347.63
2022-11-11T05:18:14.328Z,100351.06
2022-11-11T05:20:04.602Z,100356.44
2022-11-11T05:21:54.492Z,100359.13
2022-11-11T05:23:44.412Z,100359.88
2022-11-11T05:25:34.644Z,100372.56
2022-11-11T05:27:24.717Z,100371.38
2022-11-11T05:29:14.720Z,100375.25
2022-11-11T05:31:05.378Z,100381.78
2022-11-11T05:32:55.676Z,100380.63
2022-11-11T05:34:46.245Z,100381.78
2022-11-11T05:36:36.377Z,100377.94
2022-11-11T05:38:26.253Z,100377.19
2022-11-11T05:40:16.278Z,100381.78
2022-11-11T05:42:06.369Z,100377.19
2022-11-11T05:43:56.348Z,100380.63
2022-11-11T05:45:46.507Z,100378.69
2022-11-11T05:47:36.619Z,100379.13
2022-11-11T05:49:26.647Z,100372.69
2022-11-11T05:51:17.050Z,100383.59
2022-11-11T05:53:07.435Z,100379.44
2022-11-11T05:54:57.755Z,100383.94
2022-11-11T05:56:47.952Z,100396.16
2022-11-11T05:58:38.067Z,100388.84
2022-11-11T06:00:28.285Z,100398.41
2022-11-11T06:02:18.263Z,100401.53
2022-11-11T06:04:12.477Z,100403.47
2022-11-11T06:06:05.454Z,100407.66
2022-11-11T06:07:55.719Z,100411.53
2022-11-11T06:09:45.660Z,100417.66
2022-11-11T06:11:35.679Z,100426.47
2022-11-11T06:13:26.397Z,100423.03
2022-11-11T06:15:17.000Z,100423.03
2022-11-11T06:17:07.236Z,100432.19
2022-11-11T06:18:57.282Z,100434.13
2022-11-11T06:20:57.297Z,100436.34
2022-11-11T06:22:47.573Z,100433.22
2022-11-11T06:24:37.638Z,100441.59
2022-11-11T06:26:27.568Z,100407.53
2022-11-11T06:28:18.082Z,100384.38
2022-11-11T06:30:42.540Z,100362.94
2022-11-11T06:32:21.956Z,100382.97
2022-11-11T06:34:11.912Z,100392.66
2022-11-11T06:36:02.879Z,100408.00
2022-11-11T06:37:52.728Z,100414.44
2022-11-11T06:39:42.620Z,100417.47
2022-11-11T06:41:33.000Z,100428.50
2022-11-11T06:43:23.326Z,100426.88
2022-11-11T06:45:13.816Z,100429.47
2022-11-11T06:47:04.058Z,100428.28
2022-11-11T06:48:53.962Z,100441.28
2022-11-11T06:50:44.020Z,100437.41
2022-11-11T06:52:34.190Z,100445.03
2022-11-11T06:54:24.305Z,100454.16
2022-11-11T06:56:14.307Z,100456.41
2022-11-11T06:58:08.728Z,100464.78
2022-11-11T06:59:58.919Z,100467.78
2022-11-11T07:01:50.951Z,100471.09
2022-11-11T07:03:40.833Z,100469.91
2022-11-11T07:05:33.798Z,100475.59
2022-11-11T07:07:24.088Z,100477.41
2022-11-11T07:09:14.394Z,100480.41
2022-11-11T07:11:12.521Z,100478.03
2022-11-11T07:13:06.359Z,100482.53
2022-11-11T07:14:56.769Z,100490.91
2022-11-11T07:16:46.999Z,100493.94
2022-11-11T07:18:36.912Z,100482.72
2022-11-11T07:20:26.768Z,100483.06
2022-11-11T07:22:16.802Z,100486.78
2022-11-11T07:24:07.008Z,100479.03
2022-11-11T07:25:57.533Z,100474.41
2022-11-11T07:27:47.734Z,100479.03
2022-11-11T07:29:37.936Z,100479.78
2022-11-11T07:31:28.006Z,100484.41
2022-11-11T07:33:23.256Z,100481.72
2022-11-11T07:35:14.843Z,100474.75
2022-11-11T07:37:05.137Z,100483.13
2022-11-11T07:38:55.159Z,100482.69
2022-11-11T07:40:45.033Z,100476.53
2022-11-11T07:42:38.822Z,100470.44
2022-11-11T07:44:28.935Z,100479.09
2022-11-11T07:46:18.915Z,100479.09
2022-11-11T07:48:08.937Z,100480.31
2022-11-11T07:50:04.342Z,100481.81
2022-11-11T07:51:57.403Z,100480.63
2022-11-11T07:53:47.316Z,100476.75
2022-11-11T07:55:37.525Z,100482.44
2022-11-11T07:57:27.853Z,100476.63
2022-11-11T07:59:18.049Z,100476.63
2022-11-11T08:01:09.169Z,100471.66
2022-11-11T08:03:01.271Z,100462.09
2022-11-11T08:04:55.911Z,100462.09
2022-11-11T08:06:46.582Z,100467.47
2022-11-11T08:08:36.720Z,100466.00
2022-11-11T08:10:26.689Z,100464.06
2022-11-11T08:12:21.832Z,100445.66
2022-11-11T08:14:12.676Z,100426.97
2022-11-11T08:16:02.545Z,100418.72
2022-11-11T08:17:52.789Z,100422.28
2022-11-11T08:19:43.103Z,100451.53
2022-11-11T08:21:33.667Z,100453.03
2022-11-11T08:24:22.860Z,100450.03
2022-11-11T08:25:34.175Z,100452.72
2022-11-11T08:27:24.208Z,100452.28
2022-11-11T08:29:14.401Z,100458.41
2022-11-11T08:31:04.664Z,100461.84
2022-11-11T08:35:15.116Z,100475.91
2022-11-11T08:37:05.203Z,100482.81
2022-11-11T08:38:55.262Z,100478.19
2022-11-11T08:40:45.070Z,100481.19
2022-11-11T08:42:34.852Z,100481.94
2022-11-11T08:44:24.702Z,100481.94
2022-11-11T08:46:14.770Z,100489.56
2022-11-11T08:48:05.160Z,100490.44
2022-11-11T08:49:55.151Z,100485.81
2022-11-11T08:51:45.255Z,100496.13
2022-11-11T08:53:38.036Z,100492.25
2022-11-11T08:55:28.213Z,100489.56
2022-11-11T08:57:18.375Z,100486.13
2022-11-11T08:59:08.661Z,100491.06
2022-11-11T09:00:59.171Z,100492.25
2022-11-11T09:02:49.524Z,100496.44
2022-11-11T09:04:45.409Z,100486.88
2022-11-11T09:06:36.937Z,100493.00
2022-11-11T09:08:27.138Z,100484.19
2022-11-11T09:10:17.595Z,100478.81
2022-11-11T09:12:07.523Z,100447.53
2022-11-11T09:13:59.567Z,100426.41
2022-11-11T09:15:49.883Z,100420.03
2022-11-11T09:17:40.065Z,100414.53
2022-11-11T09:19:29.910Z,100415.44
2022-11-11T09:21:19.782Z,100417.09
2022-11-11T09:23:09.888Z,100428.72
2022-11-11T09:24:59.893Z,100421.84
2022-11-11T09:26:50.517Z,100420.16
2022-11-11T09:28:45.861Z,100425.44
2022-11-11T09:30:36.498Z,100430.84
2022-11-11T09:32:26.603Z,100440.19
2022-11-11T09:34:16.665Z,100445.47
2022-11-11T09:36:07.164Z,100449.09
2022-11-11T09:38:01.007Z,100450.00
2022-11-11T09:39:51.140Z,100460.50
2022-11-11T09:42:10.227Z,100458.38
2022-11-11T09:44:00.879Z,100459.03
2022-11-11T09:46:14.926Z,100470.25
2022-11-11T09:48:30.980Z,100472.72
2022-11-11T09:50:25.445Z,100472.19
2022-11-11T09:52:18.397Z,100480.47
2022-11-11T09:54:09.945Z,100483.38
2022-11-11T09:56:29.447Z,100486.69
2022-11-11T09:58:21.811Z,100484.66
2022-11-11T10:00:22.534Z,100482.31
2022-11-11T10:02:39.244Z,100478.75
2022-11-11T10:04:42.029Z,100487.09
2022-11-11T10:06:32.378Z,100482.03
2022-11-11T10:08:49.345Z,100490.31
2022-11-11T10:10:46.119Z,100483.22
2022-11-11T10:12:43.334Z,100488.47
2022-11-11T10:14:36.686Z,100487.16
2022-11-11T10:16:54.368Z,100501.69
2022-11-11T10:19:00.368Z,100498.13
2022-11-11T10:20:54.499Z,100499.94
2022-11-11T10:22:45.069Z,100500.25
2022-11-11T10:24:44.630Z,100501.75
2022-11-11T10:26:41.257Z,100507.03
2022-11-11T10:28:33.009Z,100510.78
2022-11-11T10:30:32.706Z,100505.72
2022-11-11T10:32:27.489Z,100506.03
2022-11-11T10:34:17.703Z,100512.47
2022-11-11T10:36:09.464Z,100512.03
2022-11-11T10:38:15.337Z,100516.97
2022-11-11T10:40:17.929Z,100517.28
2022-11-11T10:42:15.759Z,100505.34
2022-11-11T10:44:25.693Z,100501.03
2022-11-11T10:46:20.256Z,100505.97
2022-11-11T10:48:13.478Z,100494.81
2022-11-11T10:50:21.834Z,100492.41
2022-11-11T10:52:22.537Z,100490.78
2022-11-11T10:54:21.640Z,100486.91
2022-11-11T10:56:33.864Z,100487.97
2022-11-11T10:58:37.446Z,100475.28
2022-11-11T11:00:27.639Z,100483.66
2022-11-11T11:02:25.192Z,100481.28
2022-11-11T11:04:25.768Z,100486.25
2022-11-11T11:06:31.536Z,100486.66
2022-11-11T11:08:28.017Z,100484.31
2022-11-11T11:10:23.231Z,100480.44
2022-11-11T11:12:16.987Z,100479.22
2022-11-11T11:14:10.677Z,100478.94
2022-11-11T11:16:04.703Z,100479.22
2022-11-11T11:18:09.473Z,100476.53
2022-11-11T11:20:15.781Z,100478.81
2022-11-11T11:22:05.854Z,100469.56
2022-11-11T11:23:55.760Z,100471.03
2022-11-11T11:25:52.270Z,100478.69
2022-11-11T11:27:42.428Z,100464.50
2022-11-11T11:29:42.797Z,100456.72
2022-11-11T11:31:39.714Z,100460.03
2022-11-11T11:33:54.710Z,100449.16
2022-11-11T11:35:44.868Z,100439.16
2022-11-11T11:37:49.016Z,100441.38
2022-11-11T11:39:39.552Z,100437.09
2022-11-11T11:41:39.931Z,100406.84
2022-11-11T11:43:37.231Z,100435.31
2022-11-11T11:45:29.305Z,100433.69
2022-11-11T11:47:32.839Z,100427.13
2022-11-11T11:50:08.314Z,100432.78
2022-11-11T11:52:05.348Z,100432.38
2022-11-11T11:54:09.856Z,100442.66
2022-11-11T11:56:36.795Z,100437.63
2022-11-11T11:59:24.406Z,100439.09
2022-11-11T12:01:19.293Z,100435.97
2022-11-11T12:03:33.836Z,100432.81
2022-11-11T12:05:38.950Z,100428.19
2022-11-11T12:08:10.801Z,100432.81
2022-11-11T12:10:19.047Z,100436.72
2022-11-11T12:12:29.725Z,100447.50
2022-11-11T12:14:58.602Z,100443.28
2022-11-11T12:17:04.095Z,100441.34
2022-11-11T12:19:02.933Z,100437.91
2022-11-11T12:20:57.643Z,100438.66
2022-11-11T12:23:26.256Z,100438.66
2022-11-11T12:25:20.726Z,100427.91
2022-11-11T12:27:34.393Z,100428.19
2022-11-11T12:29:30.625Z,100432.81
2022-11-11T12:31:38.951Z,100440.47
2022-11-11T12:33:50.552Z,100444.63
2022-11-11T12:35:56.205Z,100439.25
2022-11-11T12:38:15.792Z,100444.22
2022-11-11T12:40:26.853Z,100451.88
2022-11-11T12:42:45.775Z,100441.13
2022-11-11T12:44:59.613Z,100433.03
2022-11-11T12:47:06.671Z,100424.53
2022-11-11T12:49:11.913Z,100434.09
2022-11-11T12:51:46.186Z,100427.31
2022-11-11T12:53:35.923Z,100435.09
2022-11-11T12:55:47.433Z,100421.63
2022-11-11T12:57:59.196Z,100438.44
2022-11-11T13:00:09.349Z,100436.03
2022-11-11T13:02:49.846Z,100431.69
2022-11-11T13:04:55.165Z,100429.34
2022-11-11T13:07:01.809Z,100424.25
2022-11-11T13:09:37.053Z,100424.53
2022-11-11T13:11:55.501Z,100419.47
2022-11-11T13:14:10.975Z,100409.16
2022-11-11T13:16:00.874Z,100407.22
2022-11-11T13:17:51.440Z,100406.47
2022-11-11T13:19:44.960Z,100397.34
2022-11-11T13:21:55.672Z,100410.34
2022-11-11T13:23:46.303Z,100411.84
2022-11-11T13:25:39.553Z,100410.34
2022-11-11T13:27:40.053Z,100415.91
2022-11-11T13:29:47.722Z,100424.28
2022-11-11T13:31:38.725Z,100420.81
2022-11-11T13:33:38.340Z,100422.00
2022-11-11T13:35:45.456Z,100425.03
2022-11-11T13:37:35.670Z,100423.38
2022-11-11T13:39:39.063Z,100422.94
2022-11-11T13:41:37.203Z,100427.72
2022-11-11T13:43:39.924Z,100424.13
2022-11-11T13:45:33.804Z,100430.56
2022-11-11T13:47:37.965Z,100432.81
2022-11-11T13:49:38.606Z,100432.50
2022-11-11T13:51:42.434Z,100431.75
2022-11-11T13:53:33.699Z,100420.25
2022-11-11T13:55:29.986Z,100420.84
2022-11-11T13:57:24.744Z,100419.66
2022-11-11T13:59:28.333Z,100422.22
2022-11-11T14:01:18.324Z,100429.81
2022-11-11T14:03:17.726Z,100439.13
2022-11-11T14:05:10.719Z,100427.59
2022-11-11T14:07:00.633Z,100419.06
2022-11-11T14:08:52.071Z,100426.69
2022-11-11T14:10:52.230Z,100432.38
2022-11-11T14:13:24.077Z,100434.31
2022-11-11T14:15:36.117Z,100428.94
2022-11-11T14:17:26.165Z,100428.94
2022-11-11T14:19:18.895Z,100426.69
2022-11-11T14:21:08.941Z,100419.53
2022-11-11T14:23:24.045Z,100424.75
2022-11-11T14:25:24.603Z,100420.84
2022-11-11T14:27:15.618Z,100422.06
2022-11-11T14:29:05.722Z,100428.63
2022-11-11T14:30:56.512Z,100426.41
2022-11-11T14:33:10.887Z,100428.63
2022-11-11T14:35:23.712Z,100425.19
2022-11-11T14:37:41.405Z,100419.53
2022-11-11T14:39:51.974Z,100417.72
2022-11-11T14:41:41.970Z,100410.06
2022-11-11T14:43:32.172Z,100408.59
2022-11-11T14:45:31.351Z,100410.97
2022-11-11T14:47:30.815Z,100409.16
2022-11-11T14:49:49.193Z,100403.94
2022-11-11T14:51:39.083Z,100399.44
2022-11-11T14:53:36.629Z,100395.41
2022-11-11T14:55:28.571Z,100394.34
2022-11-11T14:58:08.676Z,100410.63
2022-11-11T14:59:59.361Z,100411.94
2022-11-11T15:01:49.591Z,100421.94
2022-11-11T15:03:47.876Z,100413.56
2022-11-11T15:06:00.696Z,100419.69
2022-11-11T15:08:04.879Z,100421.31
2022-11-11T15:10:15.994Z,100429.38
2022-11-11T15:12:14.052Z,100419.84
2022-11-11T15:14:13.604Z,100418.31
2022-11-11T15:16:27.403Z,100421.78
2022-11-11T15:18:40.632Z,100426.41
2022-11-11T15:20:36.555Z,100427.59
2022-11-11T15:22:52.440Z,100429.53
2022-11-11T15:24:48.808Z,100423.84
2022-11-11T15:26:43.945Z,100416.22
2022-11-11T15:28:39.550Z,100416.22
2022-11-11T15:30:51.930Z,100412.78
2022-11-11T15:33:10.067Z,100416.97
2022-11-11T15:35:24.192Z,100431.16
2022-11-11T15:37:18.580Z,100430.09
2022-11-11T15:39:13.416Z,100435.94
2022-11-11T15:41:03.612Z,100429.47
2022-11-11T15:42:53.483Z,100437.25
2022-11-11T15:44:43.730Z,100441.44
2022-11-11T15:46:36.108Z,100452.63
2022-11-11T15:48:27.362Z,100450.84
2022-11-11T15:50:26.072Z,100450.06
2022-11-11T15:52:28.237Z,100450.53
2022-11-11T15:54:19.763Z,100438.41
2022-11-11T15:56:09.908Z,100443.66
2022-11-11T15:58:12.565Z,100445.16
2022-11-11T16:00:04.700Z,100444.41
2022-11-11T16:01:55.070Z,100446.34
2022-11-11T16:03:45.027Z,100449.03
2022-11-11T16:05:35.707Z,100443.34
2022-11-11T16:07:36.194Z,100442.13
2022-11-11T16:09:27.757Z,100442.59
2022-11-11T16:11:18.062Z,100441.09
2022-11-11T16:13:22.240Z,100450.66
2022-11-11T16:15:22.069Z,100452.59
2022-11-11T16:17:12.417Z,100457.22
2022-11-11T16:19:09.330Z,100443.03
2022-11-11T16:21:06.485Z,100442.72
2022-11-11T16:22:57.392Z,100446.16
2022-11-11T16:24:47.252Z,100440.78
2022-11-11T16:26:37.196Z,100427.31
2022-11-11T16:28:28.190Z,100436.59
2022-11-11T16:30:28.638Z,100435.09
2022-11-11T16:32:24.898Z,100429.28
2022-11-11T16:34:30.490Z,100428.09
2022-11-11T16:36:20.592Z,100441.97
2022-11-11T16:38:10.865Z,100445.41
2022-11-11T16:40:32.036Z,100450.78
2022-11-11T16:42:26.504Z,100453.47
2022-11-11T16:44:40.196Z,100457.97
2022-11-11T16:46:36.463Z,100455.72
2022-11-11T16:48:32.590Z,100441.09
2022-11-11T16:50:23.549Z,100433.78
2022-11-11T16:52:22.569Z,100428.41
2022-11-11T16:54:20.445Z,100422.41
2022-11-11T16:56:23.080Z,100412.09
2022-11-11T16:58:20.738Z,100418.78
2022-11-11T17:00:15.367Z,100414.28
2022-11-11T17:02:15.364Z,100410.66
2022-11-11T17:04:05.470Z,100405.59
2022-11-11T17:05:59.922Z,100415.94
2022-11-11T17:07:50.142Z,100412.78
2022-11-11T17:09:40.986Z,100411.19
2022-11-11T17:11:40.134Z,100421.94
2022-11-11T17:13:30.089Z,100423.41
2022-11-11T17:15:20.955Z,100430.72
2022-11-11T17:17:11.257Z,100412.16
2022-11-11T17:19:01.851Z,100424.28
2022-11-11T17:20:52.022Z,100422.78
2022-11-11T17:22:50.459Z,100418.63
2022-11-11T17:24:40.735Z,100417.84
2022-11-11T17:26:30.921Z,100426.69
2022-11-11T17:28:21.014Z,100413.66
2022-11-11T17:30:12.760Z,100426.34
2022-11-11T17:32:03.504Z,100415.59
2022-11-11T17:33:53.805Z,100410.66
2022-11-11T17:35:52.744Z,100418.28
2022-11-11T17:37:43.210Z,100414.41
2022-11-11T17:39:33.796Z,100424.84
2022-11-11T17:41:24.179Z,100417.22
2022-11-11T17:43:14.943Z,100419.59
2022-11-11T17:45:05.730Z,100423.78
2022-11-11T17:46:56.480Z,100430.66
2022-11-11T17:48:47.247Z,100427.53
2022-11-11T17:50:38.207Z,100426.03
2022-11-11T17:52:28.559Z,100425.28
2022-11-11T17:54:18.683Z,100421.81
2022-11-11T17:56:09.006Z,100427.19
2022-11-11T17:58:00.881Z,100430.34
2022-11-11T17:59:52.920Z,100432.16
2022-11-11T18:01:43.525Z,100438.28
2022-11-11T18:03:34.378Z,100433.66
2022-11-11T18:05:24.993Z,100432.16
2022-11-11T18:07:15.581Z,100438.72
2022-11-11T18:09:06.238Z,100435.25
2022-11-11T18:11:01.415Z,100419.84
2022-11-11T18:12:52.271Z,100423.78
2022-11-11T18:14:43.071Z,100427.97
2022-11-11T18:16:33.352Z,100429.47
2022-11-11T18:18:24.119Z,100431.72
2022-11-11T18:20:16.538Z,100439.03
2022-11-11T18:22:07.338Z,100436.03
2022-11-11T18:23:57.965Z,100431.53
2022-11-11T18:25:48.714Z,100431.97
2022-11-11T18:27:39.722Z,100437.34
2022-11-11T18:29:30.812Z,100434.66
2022-11-11T18:31:21.345Z,100423.16
2022-11-11T18:33:11.394Z,100423.47
2022-11-11T18:35:01.539Z,100420.78
2022-11-11T18:36:52.828Z,100426.16
2022-11-11T18:38:43.569Z,100423.47
2022-11-11T18:40:34.491Z,100415.41
2022-11-11T18:42:25.703Z,100414.22
2022-11-11T18:44:16.596Z,100408.09
2022-11-11T18:46:09.074Z,100410.34
2022-11-11T18:48:00.782Z,100406.91
2022-11-11T18:49:54.802Z,100411.81
2022-11-11T18:51:45.612Z,100406.91
2022-11-11T18:53:37.073Z,100405.09
2022-11-11T18:55:28.131Z,100406.28
2022-11-11T18:57:19.710Z,100399.72
2022-11-11T18:59:10.671Z,100401.19
2022-11-11T19:01:08.640Z,100410.03
2022-11-11T19:02:59.534Z,100415.41
2022-11-11T19:04:49.994Z,100408.97
2022-11-11T19:06:40.815Z,100408.22
2022-11-11T19:08:31.589Z,100408.97
2022-11-11T19:10:22.240Z,100409.28
2022-11-11T19:12:12.965Z,100409.59
2022-11-11T19:14:06.021Z,100411.66
2022-11-11T19:16:00.830Z,100407.47
2022-11-11T19:17:52.054Z,100409.53
2022-11-11T19:19:42.612Z,100415.78
2022-11-11T19:21:34.654Z,100409.69
2022-11-11T19:23:25.018Z,100409.34
2022-11-11T19:25:15.621Z,100414.41
2022-11-11T19:27:06.191Z,100410.69
2022-11-11T19:28:56.779Z,100411.84
2022-11-11T19:30:49.501Z,100415.41
2022-11-11T19:32:41.490Z,100409.00
2022-11-11T19:34:32.074Z,100413.28
2022-11-11T19:36:24.021Z,100412.97
2022-11-11T19:38:14.791Z,100405.81
2022-11-11T19:40:05.466Z,100411.59
2022-11-11T19:41:56.011Z,100411.28
2022-11-11T19:43:46.987Z,100405.63
2022-11-11T19:45:37.577Z,100400.97
2022-11-11T19:47:28.313Z,100407.56
2022-11-11T19:49:19.447Z,100398.75
2022-11-11T19:51:11.910Z,100395.19
2022-11-11T19:53:02.287Z,100406.81
2022-11-11T19:54:54.009Z,100407.69
2022-11-11T19:56:44.608Z,100402.41
2022-11-11T19:58:36.597Z,100398.97
2022-11-11T20:00:27.542Z,100408.19
2022-11-11T20:02:18.230Z,100407.00
2022-11-11T20:04:08.802Z,100403.88
2022-11-11T20:05:59.332Z,100417.00
2022-11-11T20:07:49.956Z,100406.38
2022-11-11T20:09:40.791Z,100409.50
2022-11-11T20:11:31.803Z,100408.75
2022-11-11T20:13:22.615Z,100424.53
2022-11-11T20:15:13.389Z,100421.84
2022-11-11T20:17:03.513Z,100422.63
2022-11-11T20:18:57.230Z,100428.75
2022-11-11T20:20:47.960Z,100424.88
2022-11-11T20:22:38.374Z,100432.59
2022-11-11T20:24:29.613Z,100429.50
2022-11-11T20:26:22.190Z,100423.38
2022-11-11T20:28:12.525Z,100434.97
2022-11-11T20:30:04.217Z,100428.56
2022-11-11T20:31:55.263Z,100434.78
2022-11-11T20:33:49.776Z,100438.66
2022-11-11T20:35:40.785Z,100435.56
2022-11-11T20:37:31.071Z,100432.41
2022-11-11T20:39:21.678Z,100430.03
2022-11-11T20:41:13.716Z,100434.22
2022-11-11T20:43:04.453Z,100431.13
2022-11-11T20:44:55.093Z,100431.13
2022-11-11T20:46:45.649Z,100431.53
2022-11-11T20:48:36.412Z,100425.41
2022-11-11T20:50:28.251Z,100427.03
2022-11-11T20:52:19.683Z,100418.22
2022-11-11T20:54:10.072Z,100423.59
2022-11-11T20:56:08.324Z,100418.22
2022-11-11T20:57:59.463Z,100420.16
2022-11-11T20:59:55.371Z,100414.78
2022-11-11T21:01:47.398Z,100407.94
2022-11-11T21:03:38.149Z,100411.38
2022-11-11T21:05:28.992Z,100407.94
2022-11-11T21:07:19.761Z,100407.94
2022-11-11T21:09:10.554Z,100403.44
2022-11-11T21:11:01.388Z,100408.38
2022-11-11T21:12:51.694Z,100408.06
2022-11-11T21:14:43.685Z,100412.69
2022-11-11T21:16:34.480Z,100410.75
2022-11-11T21:18:25.304Z,100409.22
2022-11-11T21:20:16.217Z,100417.28
2022-11-11T21:22:10.154Z,100416.88
2022-11-11T21:24:02.420Z,100414.59
2022-11-11T21:25:52.816Z,100413.09
2022-11-11T21:27:43.491Z,100413.09
2022-11-11T21:29:34.303Z,100415.78
2022-11-11T21:31:32.773Z,100423.84
2022-11-11T21:33:23.186Z,100416.22
2022-11-11T21:35:13.623Z,100423.53
2022-11-11T21:37:04.248Z,100419.34
2022-11-11T21:38:54.313Z,100415.16
2022-11-11T21:40:44.488Z,100408.28
2022-11-11T21:42:34.831Z,100404.44
2022-11-11T21:44:25.525Z,100401.75
2022-11-11T21:46:17.706Z,100405.59
2022-11-11T21:48:07.958Z,100410.66
2022-11-11T21:49:58.111Z,100405.72
2022-11-11T21:51:48.203Z,100408.72